createdAt,value
2022-11-29T00:13:53.908Z,2.38
2022-11-29T00:29:37.012Z,2.4
2022-11-29T00:45:20.035Z,2.45
2022-11-29T01:01:02.310Z,2.45
2022-11-29T01:16:45.128Z,2.45
2022-11-29T01:32:28.172Z,2.45
2022-11-29T01:48:10.829Z,2.44
2022-11-29T02:03:53.771Z,2.45
2022-11-29T02:19:36.226Z,2.44
2022-11-29T02:35:18.775Z,2.48
2022-11-29T02:51:01.688Z,2.52
2022-11-29T03:06:43.921Z,2.6
2022-11-29T03:22:26.910Z,2.62
2022-11-29T03:38:09.402Z,2.59
2022-11-29T03:53:51.896Z,2.55
2022-11-29T04:09:34.401Z,2.5
2022-11-29T04:25:17.248Z,2.46
2022-11-29T04:40:59.534Z,2.42
2022-11-29T04:56:42.149Z,2.4
2022-11-29T05:12:24.362Z,2.35
2022-11-29T05:28:07.037Z,2.36
2022-11-29T05:43:49.309Z,2.38
2022-11-29T05:59:31.856Z,2.45
2022-11-29T06:15:14.208Z,2.46
2022-11-29T06:30:57.200Z,2.45
2022-11-29T06:46:40.046Z,2.4
2022-11-29T07:02:22.543Z,2.36
2022-11-29T07:18:04.826Z,2.36
2022-11-29T07:33:47.951Z,2.55
2022-11-29T07:49:30.752Z,2.72
2022-11-29T08:05:13.755Z,2.93
2022-11-29T08:20:56.408Z,3.38
2022-11-29T08:36:39.484Z,3.62
2022-11-29T08:52:22.267Z,3.88
2022-11-29T09:08:04.499Z,4.23
2022-11-29T09:23:47.147Z,4.64
2022-11-29T09:39:29.853Z,4.84
2022-11-29T09:55:12.219Z,4.96
2022-11-29T10:10:55.082Z,5.05
2022-11-29T10:26:37.236Z,5.17
2022-11-29T10:42:19.816Z,5.2
2022-11-29T10:58:02.605Z,5.18
2022-11-29T11:13:44.707Z,5.24
2022-11-29T11:29:27.137Z,5.33
2022-11-29T11:45:09.471Z,5.39
2022-11-29T12:00:52.177Z,5.44
2022-11-29T12:16:35.250Z,5.43
2022-11-29T12:32:17.745Z,5.36
2022-11-29T12:48:00.270Z,5.36
2022-11-29T13:03:43.423Z,5.27
2022-11-29T13:19:25.954Z,5.12
2022-11-29T13:35:08.647Z,4.91
2022-11-29T13:50:51.464Z,4.79
2022-11-29T14:06:34.032Z,4.67
2022-11-29T14:22:17.003Z,4.57
2022-11-29T14:37:59.830Z,4.44
2022-11-29T14:53:42.802Z,4.39
2022-11-29T15:09:25.700Z,4.31
2022-11-29T15:25:08.070Z,4.28
2022-11-29T15:40:51.194Z,4.26
2022-11-29T15:56:33.450Z,4.23
2022-11-29T16:12:15.617Z,4.21
2022-11-29T16:27:58.620Z,4.16
2022-11-29T16:43:41.583Z,4.11
2022-11-29T16:59:24.435Z,4.1
2022-11-29T17:00:11.843Z,4.28
2022-11-29T17:15:54.584Z,4.16
2022-11-29T17:31:37.188Z,4.17
2022-11-29T17:47:19.767Z,4.17
2022-11-29T18:03:02.213Z,4.17
2022-11-29T18:18:44.720Z,4.17
2022-11-29T18:34:27.105Z,4.17
2022-11-29T18:50:09.743Z,4.17
2022-11-29T19:05:52.623Z,4.17
2022-11-29T19:21:35.584Z,4.17
2022-11-29T19:37:18.009Z,4.17
2022-11-29T19:53:00.220Z,4.15
2022-11-29T20:08:42.702Z,4.13
2022-11-29T20:24:24.916Z,4.1
2022-11-29T20:40:07.539Z,4.07
2022-11-29T20:55:50.622Z,4.05
2022-11-29T21:11:33.488Z,3.99
2022-11-29T21:27:15.995Z,3.98
2022-11-29T21:42:58.471Z,3.97
2022-11-29T21:58:40.920Z,3.94
2022-11-29T22:14:23.660Z,3.99
2022-11-29T22:30:06.350Z,3.94
2022-11-29T22:45:48.715Z,3.9
2022-11-29T23:01:31.799Z,3.9
2022-11-29T23:17:14.783Z,3.82
2022-11-29T23:32:57.245Z,3.81
2022-11-29T23:48:39.545Z,3.81
